sensor_id;sensor_type;location;lat;lon;timestamp;temperature;humidity
40808;DHT22;26523;52.504;13.498;2023-10-13T00:00:40;13.10;99.90
40808;DHT22;26523;52.504;13.498;2023-10-13T00:03:06;13.10;99.90
40808;DHT22;26523;52.504;13.498;2023-10-13T00:05:40;13.10;99.90
40808;DHT22;26523;52.504;13.498;2023-10-13T00:08:09;13.10;99.90
40808;DHT22;26523;52.504;13.498;2023-10-13T00:10:35;13.20;99.90
40808;DHT22;26523;52.504;13.498;2023-10-13T00:13:02;13.10;99.90
40808;DHT22;26523;52.504;13.498;2023-10-13T00:15:33;13.10;99.90
40808;DHT22;26523;52.504;13.498;2023-10-13T00:18:05;13.20;99.90
40808;DHT22;26523;52.504;13.498;2023-10-13T00:20:39;13.10;99.90
40808;DHT22;26523;52.504;13.498;2023-10-13T00:23:06;13.10;99.90
40808;DHT22;26523;52.504;13.498;2023-10-13T00:25:32;13.10;99.90
40808;DHT22;26523;52.504;13.498;2023-10-13T00:28:05;13.10;99.90
40808;DHT22;26523;52.504;13.498;2023-10-13T00:30:34;13.10;99.90
40808;DHT22;26523;52.504;13.498;2023-10-13T00:33:00;13.10;99.90
40808;DHT22;26523;52.504;13.498;2023-10-13T00:35:27;13.10;99.90
40808;DHT22;26523;52.504;13.498;2023-10-13T00:38:05;13.10;99.90
40808;DHT22;26523;52.504;13.498;2023-10-13T00:40:45;13.10;99.90
40808;DHT22;26523;52.504;13.498;2023-10-13T00:43:22;13.00;99.90
40808;DHT22;26523;52.504;13.498;2023-10-13T00:45:50;13.00;99.90
40808;DHT22;26523;52.504;13.498;2023-10-13T00:48:33;13.10;99.90
40808;DHT22;26523;52.504;13.498;2023-10-13T00:51:04;13.00;99.90
40808;DHT22;26523;52.504;13.498;2023-10-13T00:53:37;13.10;99.90
40808;DHT22;26523;52.504;13.498;2023-10-13T00:56:25;13.00;99.90
40808;DHT22;26523;52.504;13.498;2023-10-13T00:58:58;13.00;99.90
40808;DHT22;26523;52.504;13.498;2023-10-13T01:01:28;13.00;99.90
40808;DHT22;26523;52.504;13.498;2023-10-13T01:03:57;13.00;99.90
40808;DHT22;26523;52.504;13.498;2023-10-13T01:06:27;13.00;99.90
40808;DHT22;26523;52.504;13.498;2023-10-13T01:11:45;13.10;99.90
40808;DHT22;26523;52.504;13.498;2023-10-13T01:14:12;13.10;99.90
40808;DHT22;26523;52.504;13.498;2023-10-13T01:16:40;13.10;99.90
40808;DHT22;26523;52.504;13.498;2023-10-13T01:19:13;13.10;99.90
40808;DHT22;26523;52.504;13.498;2023-10-13T01:21:39;13.10;99.90
40808;DHT22;26523;52.504;13.498;2023-10-13T01:24:07;13.10;99.90
40808;DHT22;26523;52.504;13.498;2023-10-13T01:26:36;13.10;99.90
40808;DHT22;26523;52.504;13.498;2023-10-13T01:29:06;13.10;99.90
40808;DHT22;26523;52.504;13.498;2023-10-13T01:31:45;13.10;99.90
40808;DHT22;26523;52.504;13.498;2023-10-13T01:34:15;13.00;99.90
40808;DHT22;26523;52.504;13.498;2023-10-13T01:36:52;13.10;99.90
40808;DHT22;26523;52.504;13.498;2023-10-13T01:39:21;13.00;99.90
40808;DHT22;26523;52.504;13.498;2023-10-13T01:41:47;13.00;99.90
40808;DHT22;26523;52.504;13.498;2023-10-13T01:44:25;13.00;99.90
40808;DHT22;26523;52.504;13.498;2023-10-13T01:46:56;13.10;99.90
40808;DHT22;26523;52.504;13.498;2023-10-13T01:49:25;13.10;99.90
40808;DHT22;26523;52.504;13.498;2023-10-13T01:51:51;13.10;99.90
40808;DHT22;26523;52.504;13.498;2023-10-13T01:54:17;13.10;99.90
40808;DHT22;26523;52.504;13.498;2023-10-13T01:56:43;13.10;99.90
40808;DHT22;26523;52.504;13.498;2023-10-13T01:59:12;13.10;99.90
40808;DHT22;26523;52.504;13.498;2023-10-13T02:01:38;13.10;99.90
40808;DHT22;26523;52.504;13.498;2023-10-13T02:04:05;13.10;99.90
40808;DHT22;26523;52.504;13.498;2023-10-13T02:06:35;13.10;99.90
40808;DHT22;26523;52.504;13.498;2023-10-13T02:09:08;13.10;99.90
40808;DHT22;26523;52.504;13.498;2023-10-13T02:11:42;13.10;99.90
40808;DHT22;26523;52.504;13.498;2023-10-13T02:14:08;13.10;99.90
40808;DHT22;26523;52.504;13.498;2023-10-13T02:16:37;13.10;99.90
40808;DHT22;26523;52.504;13.498;2023-10-13T02:19:02;13.10;99.90
40808;DHT22;26523;52.504;13.498;2023-10-13T02:21:32;13.10;99.90
40808;DHT22;26523;52.504;13.498;2023-10-13T02:23:58;13.10;99.90
40808;DHT22;26523;52.504;13.498;2023-10-13T02:26:31;13.10;99.90
40808;DHT22;26523;52.504;13.498;2023-10-13T02:28:58;13.10;99.90
40808;DHT22;26523;52.504;13.498;2023-10-13T02:31:27;13.10;99.90
40808;DHT22;26523;52.504;13.498;2023-10-13T02:33:54;13.10;99.90
40808;DHT22;26523;52.504;13.498;2023-10-13T02:36:20;13.10;99.90
40808;DHT22;26523;52.504;13.498;2023-10-13T02:39:06;13.10;99.90
40808;DHT22;26523;52.504;13.498;2023-10-13T02:41:35;13.10;99.90
40808;DHT22;26523;52.504;13.498;2023-10-13T02:44:06;13.10;99.90
40808;DHT22;26523;52.504;13.498;2023-10-13T02:46:33;13.10;99.90
40808;DHT22;26523;52.504;13.498;2023-10-13T02:49:04;13.10;99.90
40808;DHT22;26523;52.504;13.498;2023-10-13T02:51:39;13.20;99.90
40808;DHT22;26523;52.504;13.498;2023-10-13T02:54:07;13.20;99.90
40808;DHT22;26523;52.504;13.498;2023-10-13T02:56:40;13.20;99.90
40808;DHT22;26523;52.504;13.498;2023-10-13T02:59:29;13.10;99.90
40808;DHT22;26523;52.504;13.498;2023-10-13T03:02:21;13.10;99.90
40808;DHT22;26523;52.504;13.498;2023-10-13T03:04:51;13.20;99.90
40808;DHT22;26523;52.504;13.498;2023-10-13T03:07:40;13.20;99.90
40808;DHT22;26523;52.504;13.498;2023-10-13T03:10:09;13.20;99.90
40808;DHT22;26523;52.504;13.498;2023-10-13T03:12:39;13.20;99.90
40808;DHT22;26523;52.504;13.498;2023-10-13T03:15:06;13.20;99.90
40808;DHT22;26523;52.504;13.498;2023-10-13T03:17:37;13.20;99.90
40808;DHT22;26523;52.504;13.498;2023-10-13T03:20:12;13.30;99.90
40808;DHT22;26523;52.504;13.498;2023-10-13T03:22:39;13.20;99.90
40808;DHT22;26523;52.504;13.498;2023-10-13T03:25:05;13.20;99.90
40808;DHT22;26523;52.504;13.498;2023-10-13T03:27:34;13.30;99.90
40808;DHT22;26523;52.504;13.498;2023-10-13T03:30:21;13.20;99.90
40808;DHT22;26523;52.504;13.498;2023-10-13T03:32:47;13.20;99.90
40808;DHT22;26523;52.504;13.498;2023-10-13T03:35:21;13.20;99.90
40808;DHT22;26523;52.504;13.498;2023-10-13T03:37:57;13.30;99.90
40808;DHT22;26523;52.504;13.498;2023-10-13T03:40:23;13.30;99.90
40808;DHT22;26523;52.504;13.498;2023-10-13T03:42:49;13.30;99.90
40808;DHT22;26523;52.504;13.498;2023-10-13T03:45:24;13.30;99.90
40808;DHT22;26523;52.504;13.498;2023-10-13T03:47:51;13.30;99.90
40808;DHT22;26523;52.504;13.498;2023-10-13T03:50:20;13.30;99.90
40808;DHT22;26523;52.504;13.498;2023-10-13T03:52:57;13.30;99.90
40808;DHT22;26523;52.504;13.498;2023-10-13T03:55:26;13.30;99.90
40808;DHT22;26523;52.504;13.498;2023-10-13T03:57:56;13.40;99.90
40808;DHT22;26523;52.504;13.498;2023-10-13T04:00:25;13.30;99.90
40808;DHT22;26523;52.504;13.498;2023-10-13T04:02:54;13.30;99.90
40808;DHT22;26523;52.504;13.498;2023-10-13T04:05:40;13.30;99.90
40808;DHT22;26523;52.504;13.498;2023-10-13T04:08:08;13.40;99.90
40808;DHT22;26523;52.504;13.498;2023-10-13T04:10:53;13.40;99.90
40808;DHT22;26523;52.504;13.498;2023-10-13T04:13:21;13.40;99.90
40808;DHT22;26523;52.504;13.498;2023-10-13T04:16:07;13.30;99.90
40808;DHT22;26523;52.504;13.498;2023-10-13T04:19:00;13.40;99.90
40808;DHT22;26523;52.504;13.498;2023-10-13T04:21:26;13.30;99.90
40808;DHT22;26523;52.504;13.498;2023-10-13T04:24:10;13.40;99.90
40808;DHT22;26523;52.504;13.498;2023-10-13T04:26:42;13.40;99.90
40808;DHT22;26523;52.504;13.498;2023-10-13T04:29:28;13.40;99.90
40808;DHT22;26523;52.504;13.498;2023-10-13T04:32:20;13.50;99.90
40808;DHT22;26523;52.504;13.498;2023-10-13T04:34:59;13.50;99.90
40808;DHT22;26523;52.504;13.498;2023-10-13T04:37:44;13.50;99.90
40808;DHT22;26523;52.504;13.498;2023-10-13T04:40:20;13.50;99.90
40808;DHT22;26523;52.504;13.498;2023-10-13T04:42:51;13.50;99.90
40808;DHT22;26523;52.504;13.498;2023-10-13T04:45:22;13.50;99.90
40808;DHT22;26523;52.504;13.498;2023-10-13T04:47:57;13.50;99.90
40808;DHT22;26523;52.504;13.498;2023-10-13T04:50:43;13.60;99.90
40808;DHT22;26523;52.504;13.498;2023-10-13T04:53:17;13.60;99.90
40808;DHT22;26523;52.504;13.498;2023-10-13T04:56:00;13.60;99.90
40808;DHT22;26523;52.504;13.498;2023-10-13T04:58:29;13.60;99.90
40808;DHT22;26523;52.504;13.498;2023-10-13T05:01:05;13.60;99.90
40808;DHT22;26523;52.504;13.498;2023-10-13T05:03:50;13.60;99.90
40808;DHT22;26523;52.504;13.498;2023-10-13T05:06:54;13.60;99.90
40808;DHT22;26523;52.504;13.498;2023-10-13T05:09:38;13.60;99.90
40808;DHT22;26523;52.504;13.498;2023-10-13T05:12:42;13.60;99.90
40808;DHT22;26523;52.504;13.498;2023-10-13T05:15:26;13.60;99.90
40808;DHT22;26523;52.504;13.498;2023-10-13T05:18:11;13.60;99.90
40808;DHT22;26523;52.504;13.498;2023-10-13T05:20:56;13.70;99.90
40808;DHT22;26523;52.504;13.498;2023-10-13T05:23:40;13.70;99.90
40808;DHT22;26523;52.504;13.498;2023-10-13T05:26:26;13.70;99.90
40808;DHT22;26523;52.504;13.498;2023-10-13T05:29:12;13.70;99.90
40808;DHT22;26523;52.504;13.498;2023-10-13T05:31:56;13.70;99.90
40808;DHT22;26523;52.504;13.498;2023-10-13T05:34:40;13.80;99.90
40808;DHT22;26523;52.504;13.498;2023-10-13T05:37:26;13.80;99.90
40808;DHT22;26523;52.504;13.498;2023-10-13T05:40:14;13.80;99.90
40808;DHT22;26523;52.504;13.498;2023-10-13T05:42:59;13.80;99.90
40808;DHT22;26523;52.504;13.498;2023-10-13T05:45:43;13.90;99.90
40808;DHT22;26523;52.504;13.498;2023-10-13T05:48:28;13.90;99.90
40808;DHT22;26523;52.504;13.498;2023-10-13T05:51:18;13.90;99.90
40808;DHT22;26523;52.504;13.498;2023-10-13T05:54:03;14.00;99.90
40808;DHT22;26523;52.504;13.498;2023-10-13T05:56:39;14.00;99.90
40808;DHT22;26523;52.504;13.498;2023-10-13T05:59:23;14.00;99.90
40808;DHT22;26523;52.504;13.498;2023-10-13T06:02:08;14.00;99.90
40808;DHT22;26523;52.504;13.498;2023-10-13T06:05:08;14.00;99.90
40808;DHT22;26523;52.504;13.498;2023-10-13T06:07:53;14.10;99.90
40808;DHT22;26523;52.504;13.498;2023-10-13T06:10:38;14.10;99.90
40808;DHT22;26523;52.504;13.498;2023-10-13T06:13:23;14.20;99.90
40808;DHT22;26523;52.504;13.498;2023-10-13T06:16:08;14.30;99.90
40808;DHT22;26523;52.504;13.498;2023-10-13T06:18:53;14.30;99.90
40808;DHT22;26523;52.504;13.498;2023-10-13T06:21:37;14.40;99.90
40808;DHT22;26523;52.504;13.498;2023-10-13T06:24:22;14.50;99.90
40808;DHT22;26523;52.504;13.498;2023-10-13T06:27:06;14.60;99.90
40808;DHT22;26523;52.504;13.498;2023-10-13T06:29:52;14.70;99.90
40808;DHT22;26523;52.504;13.498;2023-10-13T06:32:19;14.80;99.90
40808;DHT22;26523;52.504;13.498;2023-10-13T06:34:45;14.80;99.90
40808;DHT22;26523;52.504;13.498;2023-10-13T06:37:16;14.90;99.90
40808;DHT22;26523;52.504;13.498;2023-10-13T06:39:53;14.90;99.90
40808;DHT22;26523;52.504;13.498;2023-10-13T06:42:28;14.90;99.90
40808;DHT22;26523;52.504;13.498;2023-10-13T06:44:57;14.80;99.90
40808;DHT22;26523;52.504;13.498;2023-10-13T06:47:25;14.90;99.90
40808;DHT22;26523;52.504;13.498;2023-10-13T06:49:55;14.90;99.90
40808;DHT22;26523;52.504;13.498;2023-10-13T06:52:25;15.00;99.90
40808;DHT22;26523;52.504;13.498;2023-10-13T06:54:55;15.00;99.90
40808;DHT22;26523;52.504;13.498;2023-10-13T06:57:21;15.00;99.90
40808;DHT22;26523;52.504;13.498;2023-10-13T06:59:47;15.10;99.90
40808;DHT22;26523;52.504;13.498;2023-10-13T07:02:13;15.10;99.90
40808;DHT22;26523;52.504;13.498;2023-10-13T07:04:49;15.10;99.90
40808;DHT22;26523;52.504;13.498;2023-10-13T07:07:23;15.30;99.90
40808;DHT22;26523;52.504;13.498;2023-10-13T07:09:50;15.30;99.90
40808;DHT22;26523;52.504;13.498;2023-10-13T07:12:21;15.50;99.90
40808;DHT22;26523;52.504;13.498;2023-10-13T07:14:53;15.70;99.90
40808;DHT22;26523;52.504;13.498;2023-10-13T07:17:36;16.00;99.90
40808;DHT22;26523;52.504;13.498;2023-10-13T07:20:05;16.20;99.90
40808;DHT22;26523;52.504;13.498;2023-10-13T07:22:41;16.50;99.90
40808;DHT22;26523;52.504;13.498;2023-10-13T07:25:21;16.70;99.90
40808;DHT22;26523;52.504;13.498;2023-10-13T07:27:52;16.80;99.90
40808;DHT22;26523;52.504;13.498;2023-10-13T07:30:19;16.90;99.90
40808;DHT22;26523;52.504;13.498;2023-10-13T07:32:51;16.80;99.90
40808;DHT22;26523;52.504;13.498;2023-10-13T07:35:19;16.80;99.90
40808;DHT22;26523;52.504;13.498;2023-10-13T07:37:50;16.70;99.90
40808;DHT22;26523;52.504;13.498;2023-10-13T07:40:20;16.70;99.90
40808;DHT22;26523;52.504;13.498;2023-10-13T07:42:55;16.70;99.90
40808;DHT22;26523;52.504;13.498;2023-10-13T07:45:30;16.80;99.90
40808;DHT22;26523;52.504;13.498;2023-10-13T07:48:08;16.90;99.90
40808;DHT22;26523;52.504;13.498;2023-10-13T07:51:07;17.00;99.90
40808;DHT22;26523;52.504;13.498;2023-10-13T07:53:36;17.10;99.90
40808;DHT22;26523;52.504;13.498;2023-10-13T07:56:13;17.00;99.90
40808;DHT22;26523;52.504;13.498;2023-10-13T07:58:39;17.10;99.90
40808;DHT22;26523;52.504;13.498;2023-10-13T08:01:23;17.00;99.90
40808;DHT22;26523;52.504;13.498;2023-10-13T08:03:50;17.00;99.90
40808;DHT22;26523;52.504;13.498;2023-10-13T08:06:30;17.00;99.90
40808;DHT22;26523;52.504;13.498;2023-10-13T08:08:57;16.90;99.90
40808;DHT22;26523;52.504;13.498;2023-10-13T08:11:38;16.90;99.90
40808;DHT22;26523;52.504;13.498;2023-10-13T08:14:07;16.80;99.90
40808;DHT22;26523;52.504;13.498;2023-10-13T08:16:42;16.90;99.90
40808;DHT22;26523;52.504;13.498;2023-10-13T08:19:16;16.90;99.90
40808;DHT22;26523;52.504;13.498;2023-10-13T08:21:46;16.90;99.90
40808;DHT22;26523;52.504;13.498;2023-10-13T08:24:23;17.00;99.90
40808;DHT22;26523;52.504;13.498;2023-10-13T08:27:16;17.10;99.90
40808;DHT22;26523;52.504;13.498;2023-10-13T08:30:01;17.20;99.90
40808;DHT22;26523;52.504;13.498;2023-10-13T08:32:30;17.30;99.90
40808;DHT22;26523;52.504;13.498;2023-10-13T08:34:57;17.40;99.90
40808;DHT22;26523;52.504;13.498;2023-10-13T08:37:23;17.50;99.90
40808;DHT22;26523;52.504;13.498;2023-10-13T08:39:50;17.60;99.90
40808;DHT22;26523;52.504;13.498;2023-10-13T08:42:33;17.70;99.90
40808;DHT22;26523;52.504;13.498;2023-10-13T08:45:12;17.70;99.90
40808;DHT22;26523;52.504;13.498;2023-10-13T08:47:56;17.50;99.90
40808;DHT22;26523;52.504;13.498;2023-10-13T08:50:48;17.40;99.90
40808;DHT22;26523;52.504;13.498;2023-10-13T08:53:23;17.50;99.90
40808;DHT22;26523;52.504;13.498;2023-10-13T08:56:06;17.50;99.90
40808;DHT22;26523;52.504;13.498;2023-10-13T08:58:36;17.60;99.90
40808;DHT22;26523;52.504;13.498;2023-10-13T09:01:30;17.60;99.90
40808;DHT22;26523;52.504;13.498;2023-10-13T09:04:14;17.60;99.90
40808;DHT22;26523;52.504;13.498;2023-10-13T09:06:57;17.60;99.90
40808;DHT22;26523;52.504;13.498;2023-10-13T09:09:32;17.70;99.90
40808;DHT22;26523;52.504;13.498;2023-10-13T09:14:53;17.60;99.90
40808;DHT22;26523;52.504;13.498;2023-10-13T09:17:29;17.70;99.90
40808;DHT22;26523;52.504;13.498;2023-10-13T09:20:03;17.70;99.90
40808;DHT22;26523;52.504;13.498;2023-10-13T09:22:54;17.70;99.90
40808;DHT22;26523;52.504;13.498;2023-10-13T09:25:34;17.70;99.90
40808;DHT22;26523;52.504;13.498;2023-10-13T09:28:02;17.70;99.90
40808;DHT22;26523;52.504;13.498;2023-10-13T09:30:28;17.70;99.90
40808;DHT22;26523;52.504;13.498;2023-10-13T09:33:05;17.60;99.90
40808;DHT22;26523;52.504;13.498;2023-10-13T09:35:34;17.60;99.90
40808;DHT22;26523;52.504;13.498;2023-10-13T09:38:02;17.60;99.90
40808;DHT22;26523;52.504;13.498;2023-10-13T09:40:29;17.50;99.90
40808;DHT22;26523;52.504;13.498;2023-10-13T09:42:59;17.50;99.90
40808;DHT22;26523;52.504;13.498;2023-10-13T09:45:32;17.40;99.90
40808;DHT22;26523;52.504;13.498;2023-10-13T09:48:10;17.50;99.90
40808;DHT22;26523;52.504;13.498;2023-10-13T09:50:43;17.60;99.90
40808;DHT22;26523;52.504;13.498;2023-10-13T09:53:11;17.60;99.90
40808;DHT22;26523;52.504;13.498;2023-10-13T09:55:44;17.50;99.90
40808;DHT22;26523;52.504;13.498;2023-10-13T09:58:12;17.50;99.90
40808;DHT22;26523;52.504;13.498;2023-10-13T10:00:53;17.50;99.90
40808;DHT22;26523;52.504;13.498;2023-10-13T10:03:52;17.60;99.90
40808;DHT22;26523;52.504;13.498;2023-10-13T10:06:33;17.60;99.90
40808;DHT22;26523;52.504;13.498;2023-10-13T10:09:06;17.60;99.90
40808;DHT22;26523;52.504;13.498;2023-10-13T10:17:21;17.40;99.90
40808;DHT22;26523;52.504;13.498;2023-10-13T10:19:53;17.40;99.90
40808;DHT22;26523;52.504;13.498;2023-10-13T10:22:34;17.40;99.90
40808;DHT22;26523;52.504;13.498;2023-10-13T10:25:03;17.50;99.90
40808;DHT22;26523;52.504;13.498;2023-10-13T10:27:33;17.40;99.90
40808;DHT22;26523;52.504;13.498;2023-10-13T10:30:00;17.50;99.90
40808;DHT22;26523;52.504;13.498;2023-10-13T10:32:33;17.50;99.90
40808;DHT22;26523;52.504;13.498;2023-10-13T10:35:05;17.50;99.90
40808;DHT22;26523;52.504;13.498;2023-10-13T10:37:36;17.50;99.90
40808;DHT22;26523;52.504;13.498;2023-10-13T10:40:08;17.50;99.90
40808;DHT22;26523;52.504;13.498;2023-10-13T10:42:35;17.50;99.90
40808;DHT22;26523;52.504;13.498;2023-10-13T10:45:09;17.50;99.90
40808;DHT22;26523;52.504;13.498;2023-10-13T10:47:37;17.50;99.90
40808;DHT22;26523;52.504;13.498;2023-10-13T10:50:04;17.50;99.90
40808;DHT22;26523;52.504;13.498;2023-10-13T10:52:44;17.60;99.90
40808;DHT22;26523;52.504;13.498;2023-10-13T10:55:12;17.60;99.90
40808;DHT22;26523;52.504;13.498;2023-10-13T10:57:45;17.60;99.90
40808;DHT22;26523;52.504;13.498;2023-10-13T11:00:20;17.50;99.90
40808;DHT22;26523;52.504;13.498;2023-10-13T11:02:55;17.40;99.90
40808;DHT22;26523;52.504;13.498;2023-10-13T11:05:21;17.40;99.90
40808;DHT22;26523;52.504;13.498;2023-10-13T11:07:47;17.50;99.90
40808;DHT22;26523;52.504;13.498;2023-10-13T11:10:16;17.50;99.90
40808;DHT22;26523;52.504;13.498;2023-10-13T11:13:04;17.60;99.90
40808;DHT22;26523;52.504;13.498;2023-10-13T11:15:45;17.70;99.90
40808;DHT22;26523;52.504;13.498;2023-10-13T11:18:12;17.80;99.90
40808;DHT22;26523;52.504;13.498;2023-10-13T11:20:49;17.90;99.90
40808;DHT22;26523;52.504;13.498;2023-10-13T11:23:20;17.90;99.90
40808;DHT22;26523;52.504;13.498;2023-10-13T11:25:59;17.90;99.90
40808;DHT22;26523;52.504;13.498;2023-10-13T11:28:26;18.00;99.90
40808;DHT22;26523;52.504;13.498;2023-10-13T11:30:54;18.10;99.90
40808;DHT22;26523;52.504;13.498;2023-10-13T11:33:27;18.10;99.90
40808;DHT22;26523;52.504;13.498;2023-10-13T11:35:57;18.10;99.90
40808;DHT22;26523;52.504;13.498;2023-10-13T11:38:24;18.20;99.90
40808;DHT22;26523;52.504;13.498;2023-10-13T11:41:02;18.20;99.90
40808;DHT22;26523;52.504;13.498;2023-10-13T11:43:38;18.10;99.90
40808;DHT22;26523;52.504;13.498;2023-10-13T11:46:06;18.10;99.90
40808;DHT22;26523;52.504;13.498;2023-10-13T11:48:39;18.10;99.90
40808;DHT22;26523;52.504;13.498;2023-10-13T11:51:11;18.00;99.90
40808;DHT22;26523;52.504;13.498;2023-10-13T11:53:49;18.00;99.90
40808;DHT22;26523;52.504;13.498;2023-10-13T11:56:18;18.00;99.90
40808;DHT22;26523;52.504;13.498;2023-10-13T11:58:46;18.00;99.90
40808;DHT22;26523;52.504;13.498;2023-10-13T12:01:16;18.00;99.90
40808;DHT22;26523;52.504;13.498;2023-10-13T12:04:09;18.10;99.90
40808;DHT22;26523;52.504;13.498;2023-10-13T12:06:53;18.20;99.90
40808;DHT22;26523;52.504;13.498;2023-10-13T12:09:41;18.20;99.90
40808;DHT22;26523;52.504;13.498;2023-10-13T12:12:18;18.30;99.90
40808;DHT22;26523;52.504;13.498;2023-10-13T12:14:44;18.30;99.90
40808;DHT22;26523;52.504;13.498;2023-10-13T12:17:29;18.40;99.90
40808;DHT22;26523;52.504;13.498;2023-10-13T12:20:06;18.50;99.90
40808;DHT22;26523;52.504;13.498;2023-10-13T12:22:36;18.50;99.90
40808;DHT22;26523;52.504;13.498;2023-10-13T12:25:12;18.50;99.90
40808;DHT22;26523;52.504;13.498;2023-10-13T12:27:57;18.50;99.90
40808;DHT22;26523;52.504;13.498;2023-10-13T12:30:25;18.50;99.90
40808;DHT22;26523;52.504;13.498;2023-10-13T12:33:24;18.60;99.90
40808;DHT22;26523;52.504;13.498;2023-10-13T12:36:01;18.60;99.90
40808;DHT22;26523;52.504;13.498;2023-10-13T12:38:41;18.70;99.90
40808;DHT22;26523;52.504;13.498;2023-10-13T12:41:17;18.80;99.90
40808;DHT22;26523;52.504;13.498;2023-10-13T12:44:02;18.80;99.90
40808;DHT22;26523;52.504;13.498;2023-10-13T12:46:47;18.90;99.90
40808;DHT22;26523;52.504;13.498;2023-10-13T12:49:36;18.90;99.90
40808;DHT22;26523;52.504;13.498;2023-10-13T12:52:09;18.90;99.90
40808;DHT22;26523;52.504;13.498;2023-10-13T12:54:57;18.90;99.90
40808;DHT22;26523;52.504;13.498;2023-10-13T12:57:23;19.00;99.90
40808;DHT22;26523;52.504;13.498;2023-10-13T12:59:49;19.20;99.90
40808;DHT22;26523;52.504;13.498;2023-10-13T13:02:20;19.30;99.90
40808;DHT22;26523;52.504;13.498;2023-10-13T13:04:45;19.30;99.90
40808;DHT22;26523;52.504;13.498;2023-10-13T13:07:13;19.20;99.90
40808;DHT22;26523;52.504;13.498;2023-10-13T13:09:43;19.20;99.90
40808;DHT22;26523;52.504;13.498;2023-10-13T13:12:08;19.30;99.90
40808;DHT22;26523;52.504;13.498;2023-10-13T13:14:39;19.30;99.90
40808;DHT22;26523;52.504;13.498;2023-10-13T13:17:07;19.30;99.90
40808;DHT22;26523;52.504;13.498;2023-10-13T13:19:35;19.30;99.90
40808;DHT22;26523;52.504;13.498;2023-10-13T13:22:09;19.30;99.90
40808;DHT22;26523;52.504;13.498;2023-10-13T13:24:43;19.40;99.90
40808;DHT22;26523;52.504;13.498;2023-10-13T13:27:14;19.50;99.90
40808;DHT22;26523;52.504;13.498;2023-10-13T13:29:44;19.60;99.90
40808;DHT22;26523;52.504;13.498;2023-10-13T13:32:10;19.60;99.90
40808;DHT22;26523;52.504;13.498;2023-10-13T13:34:52;19.70;99.90
40808;DHT22;26523;52.504;13.498;2023-10-13T13:37:29;19.70;99.90
40808;DHT22;26523;52.504;13.498;2023-10-13T13:40:16;19.80;99.90
40808;DHT22;26523;52.504;13.498;2023-10-13T13:42:44;19.90;99.90
40808;DHT22;26523;52.504;13.498;2023-10-13T13:45:17;19.90;99.90
40808;DHT22;26523;52.504;13.498;2023-10-13T13:47:57;19.90;99.90
40808;DHT22;26523;52.504;13.498;2023-10-13T13:50:24;19.90;99.90
40808;DHT22;26523;52.504;13.498;2023-10-13T13:52:52;19.80;99.90
40808;DHT22;26523;52.504;13.498;2023-10-13T13:55:33;20.00;99.90
40808;DHT22;26523;52.504;13.498;2023-10-13T13:57:59;19.90;99.90
40808;DHT22;26523;52.504;13.498;2023-10-13T14:00:25;19.90;99.90
40808;DHT22;26523;52.504;13.498;2023-10-13T14:03:06;20.00;99.90
40808;DHT22;26523;52.504;13.498;2023-10-13T14:05:44;20.00;99.90
40808;DHT22;26523;52.504;13.498;2023-10-13T14:08:10;20.10;99.90
40808;DHT22;26523;52.504;13.498;2023-10-13T14:10:40;20.10;99.90
40808;DHT22;26523;52.504;13.498;2023-10-13T14:13:24;20.10;99.90
40808;DHT22;26523;52.504;13.498;2023-10-13T14:16:10;20.20;99.90
40808;DHT22;26523;52.504;13.498;2023-10-13T14:18:54;20.20;99.90
40808;DHT22;26523;52.504;13.498;2023-10-13T14:21:20;20.20;99.90
40808;DHT22;26523;52.504;13.498;2023-10-13T14:23:50;20.30;99.90
40808;DHT22;26523;52.504;13.498;2023-10-13T14:26:20;20.20;99.90
40808;DHT22;26523;52.504;13.498;2023-10-13T14:28:53;20.20;99.90
40808;DHT22;26523;52.504;13.498;2023-10-13T14:31:35;20.20;99.90
40808;DHT22;26523;52.504;13.498;2023-10-13T14:34:03;20.10;99.90
40808;DHT22;26523;52.504;13.498;2023-10-13T14:36:29;20.10;99.90
40808;DHT22;26523;52.504;13.498;2023-10-13T14:39:00;20.10;99.90
40808;DHT22;26523;52.504;13.498;2023-10-13T14:41:32;20.00;99.90
40808;DHT22;26523;52.504;13.498;2023-10-13T14:43:58;20.00;99.90
40808;DHT22;26523;52.504;13.498;2023-10-13T14:46:31;20.10;99.90
40808;DHT22;26523;52.504;13.498;2023-10-13T14:48:57;20.10;99.90
40808;DHT22;26523;52.504;13.498;2023-10-13T14:51:23;20.10;99.90
40808;DHT22;26523;52.504;13.498;2023-10-13T14:53:51;20.10;99.90
40808;DHT22;26523;52.504;13.498;2023-10-13T14:56:21;20.10;99.90
40808;DHT22;26523;52.504;13.498;2023-10-13T14:58:51;20.00;99.90
40808;DHT22;26523;52.504;13.498;2023-10-13T15:01:19;20.00;99.90
40808;DHT22;26523;52.504;13.498;2023-10-13T15:03:49;19.90;99.90
40808;DHT22;26523;52.504;13.498;2023-10-13T15:06:23;19.80;99.90
40808;DHT22;26523;52.504;13.498;2023-10-13T15:08:55;19.80;99.90
40808;DHT22;26523;52.504;13.498;2023-10-13T15:11:22;19.70;99.90
40808;DHT22;26523;52.504;13.498;2023-10-13T15:14:04;19.70;99.90
40808;DHT22;26523;52.504;13.498;2023-10-13T15:16:32;19.70;99.90
40808;DHT22;26523;52.504;13.498;2023-10-13T15:18:59;19.80;99.90
40808;DHT22;26523;52.504;13.498;2023-10-13T15:21:27;19.70;99.90
40808;DHT22;26523;52.504;13.498;2023-10-13T15:24:02;19.70;99.90
40808;DHT22;26523;52.504;13.498;2023-10-13T15:26:45;19.70;99.90
40808;DHT22;26523;52.504;13.498;2023-10-13T15:29:17;19.60;99.90
40808;DHT22;26523;52.504;13.498;2023-10-13T15:31:46;19.60;99.90
40808;DHT22;26523;52.504;13.498;2023-10-13T15:34:21;19.60;99.90
40808;DHT22;26523;52.504;13.498;2023-10-13T15:36:50;19.60;99.90
40808;DHT22;26523;52.504;13.498;2023-10-13T15:39:18;19.50;99.90
40808;DHT22;26523;52.504;13.498;2023-10-13T15:41:52;19.50;99.90
40808;DHT22;26523;52.504;13.498;2023-10-13T15:44:27;19.50;99.90
40808;DHT22;26523;52.504;13.498;2023-10-13T15:46:58;19.40;99.90
40808;DHT22;26523;52.504;13.498;2023-10-13T15:49:26;19.40;99.90
40808;DHT22;26523;52.504;13.498;2023-10-13T15:51:54;19.30;99.90
40808;DHT22;26523;52.504;13.498;2023-10-13T15:54:23;19.30;99.90
40808;DHT22;26523;52.504;13.498;2023-10-13T15:56:49;19.30;99.90
40808;DHT22;26523;52.504;13.498;2023-10-13T15:59:16;19.30;99.90
40808;DHT22;26523;52.504;13.498;2023-10-13T16:01:43;19.30;99.90
40808;DHT22;26523;52.504;13.498;2023-10-13T16:04:13;19.30;99.90
40808;DHT22;26523;52.504;13.498;2023-10-13T16:06:45;19.30;99.90
40808;DHT22;26523;52.504;13.498;2023-10-13T16:09:19;19.30;99.90